Time;durP1;ratioP1;P1;durP2;ratioP2;P2;SDS_P1;SDS_P2;PMS_P1;PMS_P2;Temp;Humidity;BMP_temperature;BMP_pressure;BME280_temperature;BME280_humidity;BME280_pressure;Samples;Min_cycle;Max_cycle;Signal;HPM_P1;HPM_P2
2022/09/20 00:01:32;;;;;;;10.03;2.60;;;11.00;99.90;;;;;;5095889;28;20464;-77
2022/09/20 00:04:03;;;;;;;12.90;2.70;;;11.10;99.90;;;;;;5099826;28;21022;-78
2022/09/20 00:06:34;;;;;;;10.03;2.90;;;11.10;99.90;;;;;;5097473;28;20432;-78
2022/09/20 00:09:04;;;;;;;6.40;2.17;;;11.10;99.90;;;;;;5097439;28;20420;-77
2022/09/20 00:11:34;;;;;;;9.40;3.37;;;11.10;99.90;;;;;;5097154;28;20467;-79
2022/09/20 00:14:07;;;;;;;6.83;2.13;;;11.10;99.90;;;;;;5098497;28;20436;-77
2022/09/20 00:16:37;;;;;;;8.90;3.33;;;11.10;99.90;;;;;;5099586;28;20509;-79
2022/09/20 00:19:06;;;;;;;8.53;2.83;;;11.00;99.90;;;;;;5099707;28;20495;-78
2022/09/20 00:21:37;;;;;;;8.67;2.87;;;11.10;99.90;;;;;;5101775;28;20466;-78
2022/09/20 00:24:05;;;;;;;7.30;2.47;;;11.10;99.90;;;;;;5102880;28;20464;-79
2022/09/20 00:26:34;;;;;;;8.33;2.63;;;11.10;99.90;;;;;;5100893;28;20440;-78
2022/09/20 00:29:02;;;;;;;8.37;2.87;;;11.10;99.90;;;;;;5100117;28;20436;-78
2022/09/20 00:31:30;;;;;;;6.43;2.37;;;11.10;99.90;;;;;;5103095;28;20555;-79
2022/09/20 00:36:46;;;;;;;7.10;2.33;;;11.10;99.90;;;;;;5100333;28;20491;-78
2022/09/20 00:39:15;;;;;;;8.50;2.60;;;11.10;99.90;;;;;;5105043;28;20453;-80
2022/09/20 00:41:45;;;;;;;10.77;3.13;;;11.00;99.90;;;;;;5104747;28;20466;-80
2022/09/20 00:44:41;;;;;;;8.75;2.72;;;11.00;99.90;;;;;;5101642;28;21022;-79
2022/09/20 00:47:17;;;;;;;7.47;2.17;;;11.10;99.90;;;;;;5099304;28;20209;-79
2022/09/20 00:49:46;;;;;;;8.63;2.20;;;11.10;99.90;;;;;;5099216;28;20435;-77
2022/09/20 00:52:16;;;;;;;9.00;2.33;;;11.10;99.90;;;;;;5100251;28;20463;-77
2022/09/20 00:54:46;;;;;;;6.67;2.17;;;11.00;99.90;;;;;;5100938;28;20432;-77
2022/09/20 00:57:14;;;;;;;12.30;2.30;;;11.00;99.90;;;;;;5099153;28;20444;-79
2022/09/20 00:59:45;;;;;;;9.53;2.37;;;11.00;99.90;;;;;;5102161;28;20859;-77
2022/09/20 01:02:17;;;;;;;7.47;2.10;;;11.00;99.90;;;;;;5099702;28;20489;-78
2022/09/20 01:04:47;;;;;;;5.43;2.27;;;11.00;99.90;;;;;;5099334;28;20555;-77
2022/09/20 01:07:21;;;;;;;5.80;1.83;;;11.00;99.90;;;;;;5098700;28;20484;-78
2022/09/20 01:09:49;;;;;;;4.57;1.93;;;11.00;99.90;;;;;;5099871;28;20478;-78
2022/09/20 01:12:20;;;;;;;5.03;1.37;;;11.00;99.90;;;;;;5099956;28;20509;-79
2022/09/20 01:14:51;;;;;;;5.70;2.10;;;11.00;99.90;;;;;;5099943;28;20440;-77
2022/09/20 01:17:23;;;;;;;4.83;1.97;;;11.00;99.90;;;;;;5102879;28;20431;-79
2022/09/20 01:20:07;;;;;;;6.50;1.90;;;11.00;99.90;;;;;;5098932;28;20489;-77
2022/09/20 01:22:47;;;;;;;3.90;1.70;;;11.00;99.90;;;;;;5100367;28;20456;-80
2022/09/20 01:25:18;;;;;;;5.27;1.70;;;11.00;99.90;;;;;;5098129;28;20467;-79
2022/09/20 01:27:49;;;;;;;8.10;2.00;;;11.00;99.90;;;;;;5100679;28;20432;-78
2022/09/20 01:30:19;;;;;;;5.67;2.03;;;11.10;99.90;;;;;;5101691;28;20821;-79
2022/09/20 01:33:00;;;;;;;6.63;2.00;;;11.10;99.90;;;;;;5100943;28;20497;-78
2022/09/20 01:35:29;;;;;;;6.37;2.33;;;11.10;99.90;;;;;;5100802;28;20906;-78
2022/09/20 01:38:12;;;;;;;8.00;2.30;;;11.10;99.90;;;;;;5099374;28;20428;-77
2022/09/20 01:40:47;;;;;;;9.40;3.37;;;11.10;99.90;;;;;;5098597;28;20494;-78
2022/09/20 01:43:24;;;;;;;7.73;2.87;;;11.10;99.90;;;;;;5098964;28;21016;-77
2022/09/20 01:45:53;;;;;;;9.03;2.13;;;11.10;99.90;;;;;;5098893;28;20528;-78
2022/09/20 01:48:30;;;;;;;9.80;2.90;;;11.10;99.90;;;;;;5102099;28;20512;-79
2022/09/20 01:51:25;;;;;;;8.00;2.90;;;11.10;99.90;;;;;;5110110;28;20501;-77
2022/09/20 01:54:21;;;;;;;11.17;3.27;;;11.10;99.90;;;;;;5114682;28;20417;-79
2022/09/20 01:57:27;;;;;;;6.40;2.37;;;11.10;99.90;;;;;;5102631;28;20448;-77
2022/09/20 02:00:05;;;;;;;7.87;2.73;;;11.10;99.90;;;;;;5102857;28;20440;-78
2022/09/20 02:03:04;;;;;;;7.43;2.33;;;11.10;99.90;;;;;;5101446;28;20474;-78
2022/09/20 02:06:01;;;;;;;8.63;2.87;;;11.10;99.90;;;;;;5102405;28;20563;-80
2022/09/20 02:08:59;;;;;;;7.23;2.70;;;11.10;99.90;;;;;;5103672;28;20441;-79
2022/09/20 02:11:36;;;;;;;10.60;3.20;;;11.10;99.90;;;;;;5104010;28;20555;-80
2022/09/20 02:14:21;;;;;;;10.10;3.00;;;11.00;99.90;;;;;;5105570;28;20469;-80
2022/09/20 02:16:53;;;;;;;10.70;3.23;;;11.10;99.90;;;;;;5105146;28;20906;-78
2022/09/20 02:19:34;;;;;;;7.90;2.83;;;11.10;99.90;;;;;;5103963;28;20433;-79
2022/09/20 02:22:27;;;;;;;7.07;2.40;;;11.00;99.90;;;;;;5105818;28;20459;-78
2022/09/20 02:25:07;;;;;;;9.30;3.00;;;11.00;99.90;;;;;;5101575;28;20838;-80
2022/09/20 02:27:44;;;;;;;11.17;2.83;;;11.00;99.90;;;;;;5106056;28;20519;-78
2022/09/20 02:30:22;;;;;;;13.30;3.40;;;11.00;99.90;;;;;;5102804;28;20455;-79
2022/09/20 02:33:18;;;;;;;12.27;3.57;;;11.00;99.90;;;;;;5102706;28;20472;-80
2022/09/20 02:36:00;;;;;;;9.33;3.00;;;10.90;99.90;;;;;;5097342;28;20964;-78
2022/09/20 02:38:42;;;;;;;15.00;3.60;;;10.90;99.90;;;;;;5098846;28;20447;-76
2022/09/20 02:41:47;;;;;;;9.07;3.47;;;10.90;99.90;;;;;;5100474;28;20408;-79
2022/09/20 02:44:25;;;;;;;9.73;2.90;;;10.90;99.90;;;;;;5100445;28;20845;-79
2022/09/20 02:47:00;;;;;;;8.17;3.00;;;10.90;99.90;;;;;;5106615;28;20531;-80
2022/09/20 02:49:38;;;;;;;10.73;2.73;;;10.80;99.90;;;;;;5097749;28;20450;-77
2022/09/20 02:52:15;;;;;;;15.80;3.50;;;10.80;99.90;;;;;;5100800;28;20472;-78
2022/09/20 02:54:52;;;;;;;11.23;3.30;;;10.80;99.90;;;;;;5100565;28;20509;-79
2022/09/20 02:57:26;;;;;;;11.00;3.27;;;10.80;99.90;;;;;;5101597;28;20505;-78
2022/09/20 03:00:00;;;;;;;13.00;3.40;;;10.80;99.90;;;;;;5102507;28;20435;-79
2022/09/20 03:02:37;;;;;;;8.70;2.90;;;10.70;99.90;;;;;;5102687;28;20466;-78
2022/09/20 03:05:14;;;;;;;9.03;2.57;;;10.70;99.90;;;;;;5101942;28;20812;-79
2022/09/20 03:07:54;;;;;;;11.70;2.70;;;10.70;99.90;;;;;;5100165;28;20444;-78
2022/09/20 03:10:27;;;;;;;7.43;2.93;;;10.70;99.90;;;;;;5100348;28;20444;-79
2022/09/20 03:13:17;;;;;;;9.60;3.07;;;10.70;99.90;;;;;;5101431;28;20459;-79
2022/09/20 03:15:57;;;;;;;8.87;2.73;;;10.70;99.90;;;;;;5102274;28;20431;-78
2022/09/20 03:18:34;;;;;;;8.23;2.93;;;10.60;99.90;;;;;;5102409;28;20417;-78
2022/09/20 03:21:16;;;;;;;9.03;3.57;;;10.60;99.90;;;;;;5102697;28;20436;-78
2022/09/20 03:23:55;;;;;;;8.03;2.60;;;10.60;99.90;;;;;;5102177;28;20874;-78
2022/09/20 03:26:34;;;;;;;17.33;3.83;;;10.60;99.90;;;;;;5103458;28;20448;-78
2022/09/20 03:29:07;;;;;;;10.30;3.43;;;10.60;99.90;;;;;;5100984;28;20443;-78
2022/09/20 03:31:58;;;;;;;10.50;3.23;;;10.50;99.90;;;;;;5102537;28;20471;-78
2022/09/20 03:34:45;;;;;;;9.50;3.00;;;10.50;99.90;;;;;;5101984;28;20416;-78
2022/09/20 03:37:29;;;;;;;8.67;3.10;;;10.40;99.90;;;;;;5102495;28;20420;-78
2022/09/20 03:40:24;;;;;;;14.53;4.03;;;10.40;99.90;;;;;;5100135;28;20783;-78
2022/09/20 03:42:53;;;;;;;12.27;4.10;;;10.40;99.90;;;;;;5099441;28;21010;-78
2022/09/20 03:45:34;;;;;;;12.90;3.33;;;10.40;99.90;;;;;;5099544;28;20517;-78
2022/09/20 03:48:35;;;;;;;10.13;3.73;;;10.40;99.90;;;;;;5098794;28;20464;-78
2022/09/20 03:51:13;;;;;;;11.80;3.50;;;10.40;99.90;;;;;;5098074;28;20448;-79
2022/09/20 03:54:22;;;;;;;11.60;3.53;;;10.40;99.90;;;;;;5099649;28;20424;-78
2022/09/20 03:57:28;;;;;;;10.90;3.00;;;10.40;99.90;;;;;;5095155;28;20444;-77
2022/09/20 04:00:22;;;;;;;11.93;3.80;;;10.40;99.90;;;;;;5088424;28;20456;-78
2022/09/20 04:03:20;;;;;;;9.53;3.00;;;10.40;99.90;;;;;;5088161;28;20464;-79
2022/09/20 04:06:00;;;;;;;11.00;3.17;;;10.40;99.90;;;;;;5099317;28;20460;-79
2022/09/20 04:08:47;;;;;;;7.50;2.90;;;10.40;99.90;;;;;;5100031;28;20831;-78
2022/09/20 04:11:25;;;;;;;9.50;3.33;;;10.40;99.90;;;;;;5099518;28;20428;-79
2022/09/20 04:14:00;;;;;;;11.40;3.00;;;10.40;99.90;;;;;;5099439;28;20454;-78
2022/09/20 04:16:40;;;;;;;10.17;3.50;;;10.40;99.90;;;;;;5100225;28;20881;-79
2022/09/20 04:19:15;;;;;;;7.10;3.03;;;10.40;99.90;;;;;;5098869;28;20472;-77
2022/09/20 04:21:51;;;;;;;13.60;3.20;;;10.40;99.90;;;;;;5096865;28;20827;-77
2022/09/20 04:24:26;;;;;;;10.20;3.27;;;10.40;99.90;;;;;;5099299;28;20420;-81
2022/09/20 04:27:00;;;;;;;11.40;3.00;;;10.40;99.90;;;;;;5099415;28;20637;-79
2022/09/20 04:29:37;;;;;;;8.87;2.43;;;10.40;99.90;;;;;;5096194;28;20977;-79
2022/09/20 04:32:16;;;;;;;8.67;2.77;;;10.40;99.90;;;;;;5095406;28;20471;-78
2022/09/20 04:37:38;;;;;;;8.60;3.00;;;10.40;99.90;;;;;;5094996;28;20441;-77
2022/09/20 04:40:21;;;;;;;12.03;3.00;;;10.50;99.90;;;;;;5093614;28;20428;-76
2022/09/20 04:43:29;;;;;;;6.10;2.30;;;10.40;99.90;;;;;;5099766;28;20448;-79
2022/09/20 04:46:25;;;;;;;10.00;3.93;;;10.50;99.90;;;;;;5094699;28;20479;-78
2022/09/20 04:49:36;;;;;;;7.73;2.53;;;10.50;99.90;;;;;;5097267;28;20437;-78
2022/09/20 04:52:34;;;;;;;9.00;2.70;;;10.50;99.90;;;;;;5078722;28;20471;-78
2022/09/20 04:55:30;;;;;;;9.20;3.50;;;10.50;99.90;;;;;;5097398;28;20444;-78
2022/09/20 04:58:35;;;;;;;8.20;3.30;;;10.50;99.90;;;;;;5086694;28;20889;-79
2022/09/20 05:01:54;;;;;;;11.13;3.03;;;10.50;99.90;;;;;;5077456;28;20533;-78
2022/09/20 05:05:00;;;;;;;10.60;3.30;;;10.50;99.90;;;;;;5077540;28;20456;-78
2022/09/20 05:07:59;;;;;;;8.20;3.03;;;10.50;99.90;;;;;;5100198;28;20862;-79
2022/09/20 05:11:09;;;;;;;9.20;3.03;;;10.50;99.90;;;;;;5101647;28;20490;-79
2022/09/20 05:13:56;;;;;;;9.90;4.20;;;10.50;99.90;;;;;;5098727;28;20444;-79
2022/09/20 05:16:35;;;;;;;9.33;3.67;;;10.50;99.90;;;;;;5101620;28;20906;-79
2022/09/20 05:19:22;;;;;;;8.43;3.50;;;10.50;99.90;;;;;;5102950;28;20440;-78
2022/09/20 05:22:06;;;;;;;8.43;3.20;;;10.50;99.90;;;;;;5104125;28;20451;-79
2022/09/20 05:25:05;;;;;;;10.80;4.20;;;10.60;99.90;;;;;;5103270;28;20436;-79
2022/09/20 05:27:43;;;;;;;14.30;3.93;;;10.60;99.90;;;;;;5076667;28;20487;-79
2022/09/20 05:30:32;;;;;;;8.43;3.50;;;10.60;99.90;;;;;;5103506;28;20456;-80
2022/09/20 05:33:11;;;;;;;6.17;2.63;;;10.60;99.90;;;;;;5104447;28;20513;-78
2022/09/20 05:35:48;;;;;;;8.03;2.83;;;10.60;99.90;;;;;;5100595;28;20436;-77
2022/09/20 05:38:26;;;;;;;10.47;3.23;;;10.60;99.90;;;;;;5100930;28;20440;-77
2022/09/20 05:41:09;;;;;;;9.00;3.47;;;10.60;99.90;;;;;;5101498;28;20798;-77
2022/09/20 05:43:48;;;;;;;7.30;3.37;;;10.70;99.90;;;;;;5101727;28;20417;-79
2022/09/20 05:46:22;;;;;;;10.87;3.70;;;10.70;99.90;;;;;;5102762;28;20527;-78
2022/09/20 05:48:57;;;;;;;9.13;3.20;;;10.70;99.90;;;;;;5103362;28;20447;-78
2022/09/20 05:51:42;;;;;;;7.97;3.13;;;10.70;99.90;;;;;;5107610;28;20466;-79
2022/09/20 05:54:29;;;;;;;8.17;2.43;;;10.70;99.90;;;;;;5107914;28;20435;-80
2022/09/20 05:57:15;;;;;;;6.00;2.47;;;10.70;99.90;;;;;;5107433;28;20545;-78
2022/09/20 05:59:56;;;;;;;9.83;3.03;;;10.80;99.90;;;;;;5105829;28;20451;-80
2022/09/20 06:02:36;;;;;;;8.13;3.10;;;10.80;99.90;;;;;;5107663;28;20800;-78
2022/09/20 06:05:13;;;;;;;8.60;3.20;;;10.80;99.90;;;;;;5107844;28;20470;-79
2022/09/20 06:08:08;;;;;;;13.13;3.63;;;10.80;99.90;;;;;;5106900;28;20819;-79
2022/09/20 06:10:46;;;;;;;9.30;3.47;;;10.80;99.90;;;;;;5105737;28;20450;-79
2022/09/20 06:13:35;;;;;;;6.90;2.77;;;10.80;99.90;;;;;;5106145;28;20468;-79
2022/09/20 06:16:05;;;;;;;11.57;3.03;;;10.80;99.90;;;;;;5105380;28;20875;-78
2022/09/20 06:18:40;;;;;;;7.93;2.97;;;10.80;99.90;;;;;;5105630;28;20436;-79
2022/09/20 06:21:21;;;;;;;10.40;3.80;;;10.80;99.90;;;;;;5105722;28;20443;-78
2022/09/20 06:23:56;;;;;;;5.80;2.70;;;10.90;99.90;;;;;;5107495;28;20440;-79
2022/09/20 06:26:28;;;;;;;8.40;3.80;;;10.90;99.90;;;;;;5106019;28;20464;-79
2022/09/20 06:29:00;;;;;;;11.23;4.00;;;10.90;99.90;;;;;;5105320;28;20449;-78
2022/09/20 06:31:28;;;;;;;6.00;3.30;;;10.90;99.90;;;;;;5104541;28;20479;-78
2022/09/20 06:33:59;;;;;;;8.43;3.60;;;11.00;99.90;;;;;;5106588;28;20462;-79
2022/09/20 06:42:13;;;;;;;7.87;3.73;;;11.00;99.90;;;;;;5104946;28;20479;-79
2022/09/20 06:44:42;;;;;;;9.57;3.20;;;11.00;99.90;;;;;;5105931;28;20436;-79
2022/09/20 06:47:11;;;;;;;7.47;2.80;;;11.10;99.90;;;;;;5105735;28;20479;-78
2022/09/20 06:49:41;;;;;;;9.40;2.87;;;11.10;99.90;;;;;;5104611;28;20444;-79
2022/09/20 06:52:14;;;;;;;8.33;2.90;;;11.10;99.90;;;;;;5105056;28;20465;-78
2022/09/20 06:54:45;;;;;;;6.97;3.03;;;11.10;99.90;;;;;;5105269;28;20456;-79
2022/09/20 06:57:16;;;;;;;5.70;2.80;;;11.20;99.90;;;;;;5103716;28;20437;-79
2022/09/20 06:59:44;;;;;;;7.70;2.73;;;11.20;99.90;;;;;;5104146;28;20428;-79
2022/09/20 07:02:12;;;;;;;7.50;2.50;;;11.20;99.90;;;;;;5103966;28;20456;-79
2022/09/20 07:04:42;;;;;;;10.10;3.63;;;11.30;99.90;;;;;;5102420;28;20440;-79
2022/09/20 07:07:17;;;;;;;8.57;3.07;;;11.30;99.90;;;;;;5103249;28;20468;-79
2022/09/20 07:09:46;;;;;;;5.57;3.00;;;11.30;99.90;;;;;;5104338;28;20473;-79
2022/09/20 07:12:14;;;;;;;10.60;3.30;;;11.30;99.90;;;;;;5102066;28;20475;-79
2022/09/20 07:14:43;;;;;;;6.93;2.90;;;11.40;99.90;;;;;;5101293;28;20451;-80
2022/09/20 07:17:12;;;;;;;10.73;3.10;;;11.40;99.90;;;;;;5103433;28;20441;-80
2022/09/20 07:19:40;;;;;;;9.80;3.63;;;11.50;99.90;;;;;;5115915;28;20448;-79
2022/09/20 07:22:08;;;;;;;8.23;2.73;;;11.40;99.90;;;;;;5114850;28;20515;-78
2022/09/20 07:24:36;;;;;;;7.07;2.70;;;11.50;99.90;;;;;;5114258;28;21063;-79
2022/09/20 07:27:06;;;;;;;9.23;3.30;;;11.60;99.90;;;;;;5108119;28;20507;-79
2022/09/20 07:29:35;;;;;;;9.30;2.73;;;11.70;99.90;;;;;;5108898;28;20460;-79
2022/09/20 07:32:03;;;;;;;7.43;2.83;;;11.70;99.90;;;;;;5111162;28;20492;-79
2022/09/20 07:34:31;;;;;;;8.60;2.70;;;11.80;99.90;;;;;;5109703;28;20444;-79
2022/09/20 07:37:00;;;;;;;9.50;3.10;;;11.90;99.90;;;;;;5107500;28;20506;-79
2022/09/20 07:39:28;;;;;;;7.23;2.23;;;12.00;99.90;;;;;;5107650;28;20497;-79
2022/09/20 07:41:56;;;;;;;7.00;2.10;;;12.00;99.90;;;;;;5102461;28;20464;-79
2022/09/20 07:44:26;;;;;;;6.53;2.27;;;12.10;99.90;;;;;;5102342;28;20478;-79
2022/09/20 07:46:57;;;;;;;6.17;2.47;;;12.20;99.90;;;;;;5100782;28;20433;-77
2022/09/20 07:49:27;;;;;;;8.73;2.37;;;12.30;99.90;;;;;;5100638;28;20424;-79
2022/09/20 07:51:55;;;;;;;6.80;2.47;;;12.40;99.90;;;;;;5101567;28;20837;-79
2022/09/20 07:54:26;;;;;;;5.63;2.77;;;12.50;99.90;;;;;;5099958;28;20889;-79
2022/09/20 07:56:54;;;;;;;9.00;3.03;;;12.60;99.90;;;;;;5101323;28;20440;-81
2022/09/20 07:59:23;;;;;;;6.43;2.77;;;12.70;99.90;;;;;;5100839;28;20440;-80
2022/09/20 08:01:52;;;;;;;5.00;2.83;;;12.70;99.90;;;;;;5103105;28;20478;-80
2022/09/20 08:04:20;;;;;;;6.27;2.20;;;12.70;99.90;;;;;;5101730;28;20448;-79
2022/09/20 08:06:48;;;;;;;7.27;2.50;;;12.70;99.90;;;;;;5102429;28;20459;-81
2022/09/20 08:09:17;;;;;;;7.07;2.10;;;12.70;99.90;;;;;;5102000;28;20460;-80
2022/09/20 08:11:46;;;;;;;7.30;2.80;;;12.80;99.90;;;;;;5103094;28;20543;-82
2022/09/20 08:14:15;;;;;;;12.33;2.97;;;12.80;99.90;;;;;;5103402;28;20472;-80
2022/09/20 08:16:46;;;;;;;6.53;2.57;;;12.70;99.90;;;;;;5104010;28;20812;-82
2022/09/20 08:19:18;;;;;;;6.67;2.33;;;12.70;99.90;;;;;;5103458;28;20508;-81
2022/09/20 08:21:47;;;;;;;5.20;2.57;;;12.70;99.90;;;;;;5105741;28;20840;-81
2022/09/20 08:24:16;;;;;;;6.10;2.30;;;12.70;99.90;;;;;;5105252;28;20455;-80
2022/09/20 08:26:44;;;;;;;5.70;2.70;;;12.70;99.90;;;;;;5107296;28;20444;-81
2022/09/20 08:29:14;;;;;;;5.70;2.47;;;12.60;99.90;;;;;;5105169;28;20486;-81
2022/09/20 08:31:42;;;;;;;3.80;1.87;;;12.60;99.90;;;;;;5104921;28;20444;-81
2022/09/20 08:34:13;;;;;;;7.33;2.40;;;12.60;99.90;;;;;;5104481;28;20444;-80
2022/09/20 08:36:45;;;;;;;8.17;2.27;;;12.60;99.90;;;;;;5106095;28;20473;-80
2022/09/20 08:39:15;;;;;;;5.90;2.40;;;12.70;99.90;;;;;;5103792;28;20507;-80
2022/09/20 08:42:13;;;;;;;8.03;2.70;;;12.90;99.90;;;;;;5104913;28;21046;-80
2022/09/20 08:44:49;;;;;;;5.47;2.80;;;13.00;99.90;;;;;;5102375;28;20498;-79
2022/09/20 08:47:28;;;;;;;7.03;3.63;;;13.10;99.90;;;;;;5102562;28;20475;-80
2022/09/20 08:49:59;;;;;;;6.30;3.47;;;13.20;99.90;;;;;;5102189;28;20510;-79
2022/09/20 08:52:31;;;;;;;4.80;3.23;;;13.30;99.90;;;;;;5104754;28;20491;-79
2022/09/20 08:55:13;;;;;;;10.50;3.67;;;13.30;99.90;;;;;;5104535;28;20428;-79
2022/09/20 08:57:42;;;;;;;5.50;2.90;;;13.40;99.90;;;;;;5106185;28;20456;-77
2022/09/20 09:00:17;;;;;;;4.57;2.53;;;13.50;99.90;;;;;;5102900;28;20448;-77
2022/09/20 09:02:46;;;;;;;6.20;2.43;;;13.50;99.90;;;;;;5105232;28;20482;-79
2022/09/20 09:05:32;;;;;;;5.63;3.03;;;13.60;99.90;;;;;;5103501;28;20439;-80
2022/09/20 09:08:06;;;;;;;7.43;3.30;;;13.60;99.90;;;;;;5104775;28;20487;-79
2022/09/20 09:10:38;;;;;;;5.17;2.53;;;13.60;99.90;;;;;;5104963;28;20425;-78
2022/09/20 09:13:18;;;;;;;4.57;2.53;;;13.60;99.90;;;;;;5102947;28;20478;-78
2022/09/20 09:15:52;;;;;;;5.90;2.80;;;13.70;99.90;;;;;;5103428;28;20416;-78
2022/09/20 09:18:20;;;;;;;4.40;2.23;;;13.70;99.90;;;;;;5102855;28;20992;-79
2022/09/20 09:20:50;;;;;;;6.53;2.47;;;13.80;99.90;;;;;;5103888;28;20451;-77
2022/09/20 09:23:28;;;;;;;5.63;2.30;;;13.90;99.90;;;;;;5103740;28;20451;-78
2022/09/20 09:25:56;;;;;;;3.87;2.00;;;14.00;99.90;;;;;;5102267;28;20543;-77
2022/09/20 09:28:30;;;;;;;5.87;2.00;;;14.10;99.90;;;;;;5102920;28;20914;-77
2022/09/20 09:31:14;;;;;;;3.90;2.37;;;14.20;99.90;;;;;;5102490;28;20460;-79
2022/09/20 09:33:46;;;;;;;5.17;1.70;;;14.30;99.90;;;;;;5102179;28;20547;-79
2022/09/20 09:36:17;;;;;;;6.50;2.67;;;14.40;99.90;;;;;;5103620;28;20391;-80
2022/09/20 09:38:47;;;;;;;6.73;2.80;;;14.40;99.90;;;;;;5103118;28;20429;-79
2022/09/20 09:41:25;;;;;;;6.13;2.50;;;14.40;99.90;;;;;;5102279;28;20980;-79
2022/09/20 09:44:00;;;;;;;9.90;2.80;;;14.30;99.90;;;;;;5103232;28;20858;-81
2022/09/20 09:46:32;;;;;;;7.17;2.30;;;14.30;99.90;;;;;;5108197;28;20427;-81
2022/09/20 09:49:12;;;;;;;4.70;2.47;;;14.20;99.90;;;;;;5109145;28;20464;-80
2022/09/20 09:51:43;;;;;;;8.70;3.23;;;14.20;99.90;;;;;;5108018;28;20481;-82
2022/09/20 09:54:18;;;;;;;7.70;2.77;;;14.10;99.90;;;;;;5104366;28;20531;-84
2022/09/20 09:56:59;;;;;;;6.00;1.77;;;14.10;99.90;;;;;;5105086;28;20443;-83
2022/09/20 09:59:41;;;;;;;7.63;2.50;;;14.00;99.90;;;;;;5105662;28;20415;-83
2022/09/20 10:02:30;;;;;;;3.97;1.40;;;13.80;99.90;;;;;;5107131;28;20463;-83
2022/09/20 10:05:04;;;;;;;4.63;1.83;;;13.70;99.90;;;;;;5108529;28;20436;-82
2022/09/20 10:07:39;;;;;;;5.60;2.17;;;13.70;99.90;;;;;;5109219;28;20891;-82
2022/09/20 10:10:23;;;;;;;5.60;2.60;;;13.60;99.90;;;;;;5110551;28;20463;-81
2022/09/20 10:13:02;;;;;;;3.50;1.20;;;13.60;99.90;;;;;;5111021;28;20506;-79
2022/09/20 10:15:35;;;;;;;2.90;1.20;;;13.60;99.90;;;;;;5109731;28;20456;-79
2022/09/20 10:18:17;;;;;;;3.83;1.50;;;13.60;99.90;;;;;;5110864;28;20524;-80
2022/09/20 10:21:10;;;;;;;3.70;1.90;;;13.60;99.90;;;;;;5109811;28;20426;-79
2022/09/20 10:23:55;;;;;;;2.80;1.80;;;13.70;99.90;;;;;;5109056;28;20434;-79
2022/09/20 10:26:48;;;;;;;3.50;1.67;;;13.70;99.90;;;;;;5107599;28;20826;-79
2022/09/20 10:29:26;;;;;;;3.80;2.10;;;13.70;99.90;;;;;;5107174;28;20475;-79
2022/09/20 10:32:04;;;;;;;4.20;2.27;;;13.70;99.90;;;;;;5108586;28;20797;-80
2022/09/20 10:34:57;;;;;;;5.07;1.70;;;13.80;99.90;;;;;;5110390;28;20455;-80
2022/09/20 10:37:33;;;;;;;5.37;2.00;;;13.80;99.90;;;;;;5109113;28;20980;-79
2022/09/20 10:40:12;;;;;;;4.93;1.77;;;13.90;99.90;;;;;;5107026;28;20853;-79
2022/09/20 10:45:41;;;;;;;3.60;1.53;;;13.90;99.90;;;;;;5106481;28;20827;-80
2022/09/20 10:48:34;;;;;;;3.47;1.70;;;13.90;99.90;;;;;;5105862;28;20452;-77
2022/09/20 10:51:11;;;;;;;3.83;1.63;;;13.80;99.90;;;;;;5106956;28;20423;-80
2022/09/20 10:53:46;;;;;;;5.70;2.70;;;13.80;99.90;;;;;;5105284;28;20524;-79
2022/09/20 10:56:26;;;;;;;5.53;2.40;;;13.80;99.90;;;;;;5105413;28;20436;-80
2022/09/20 10:59:19;;;;;;;5.27;2.53;;;13.70;99.90;;;;;;5104419;28;20428;-80
2022/09/20 11:01:56;;;;;;;5.83;2.53;;;13.70;99.90;;;;;;5106974;28;20468;-79
2022/09/20 11:04:43;;;;;;;5.70;2.10;;;13.70;99.90;;;;;;5108153;28;20439;-80
2022/09/20 11:07:17;;;;;;;4.63;1.90;;;13.60;99.90;;;;;;5108468;28;20512;-78
2022/09/20 11:09:50;;;;;;;4.83;2.27;;;13.60;99.90;;;;;;5107248;28;20476;-80
2022/09/20 11:12:25;;;;;;;4.73;2.13;;;13.60;99.90;;;;;;5109372;28;20968;-79
2022/09/20 11:14:59;;;;;;;5.17;2.30;;;13.60;99.90;;;;;;5108586;28;20780;-80
2022/09/20 11:17:34;;;;;;;6.13;1.73;;;13.70;99.90;;;;;;5109229;28;20413;-80
2022/09/20 11:20:10;;;;;;;3.40;1.80;;;13.60;99.90;;;;;;5109822;28;20448;-79
2022/09/20 11:22:43;;;;;;;5.20;2.67;;;13.60;99.90;;;;;;5106833;28;20475;-79
2022/09/20 11:25:17;;;;;;;3.27;1.73;;;13.60;99.90;;;;;;5106309;28;20861;-80
2022/09/20 11:27:54;;;;;;;6.93;2.50;;;13.60;99.90;;;;;;5106023;28;20964;-80
2022/09/20 11:30:24;;;;;;;4.73;2.10;;;13.60;99.90;;;;;;5107554;28;20547;-79
2022/09/20 11:32:56;;;;;;;5.57;2.27;;;13.60;99.90;;;;;;5105940;28;20490;-79
2022/09/20 11:35:33;;;;;;;3.47;2.20;;;13.60;99.90;;;;;;5105892;28;20454;-80
2022/09/20 11:38:11;;;;;;;5.77;1.67;;;13.60;99.90;;;;;;5106639;28;20436;-80
2022/09/20 11:40:45;;;;;;;5.37;1.53;;;13.60;99.90;;;;;;5105576;28;20460;-79
2022/09/20 11:43:14;;;;;;;3.90;2.03;;;13.60;99.90;;;;;;5107798;28;20812;-79
2022/09/20 11:45:47;;;;;;;4.17;1.83;;;13.60;99.90;;;;;;5107784;28;20428;-79
2022/09/20 11:48:21;;;;;;;3.70;1.60;;;13.60;99.90;;;;;;5106425;28;20451;-79
2022/09/20 11:51:19;;;;;;;5.70;1.80;;;13.70;99.90;;;;;;5105780;28;20535;-79
2022/09/20 11:54:05;;;;;;;4.53;1.47;;;13.70;99.90;;;;;;5105771;28;20442;-79
2022/09/20 11:56:34;;;;;;;3.30;1.50;;;13.70;99.90;;;;;;5108195;28;20474;-80
2022/09/20 11:59:04;;;;;;;6.77;1.27;;;13.70;99.90;;;;;;5107554;28;20436;-81
2022/09/20 12:01:36;;;;;;;3.00;1.47;;;13.80;99.90;;;;;;5106987;28;20542;-79
2022/09/20 12:04:10;;;;;;;5.80;1.90;;;13.80;99.90;;;;;;5110127;28;20442;-79
2022/09/20 12:07:02;;;;;;;3.10;1.37;;;13.80;99.90;;;;;;5107413;28;20460;-79
2022/09/20 12:09:39;;;;;;;7.33;2.60;;;13.80;99.90;;;;;;5108710;28;20456;-79
2022/09/20 12:12:40;;;;;;;9.20;2.70;;;13.80;99.90;;;;;;5108019;28;20466;-79
2022/09/20 12:15:25;;;;;;;6.23;2.87;;;13.80;99.90;;;;;;5104465;28;20818;-80
2022/09/20 12:18:36;;;;;;;3.73;2.00;;;13.80;99.90;;;;;;5104781;28;20447;-79
2022/09/20 12:21:16;;;;;;;4.93;1.93;;;13.80;99.90;;;;;;5107055;28;20432;-80
2022/09/20 12:24:09;;;;;;;3.90;1.73;;;13.90;99.90;;;;;;5107913;28;20427;-80
2022/09/20 12:26:41;;;;;;;4.33;1.80;;;13.90;99.90;;;;;;5105334;28;20444;-80
2022/09/20 12:29:56;;;;;;;4.03;1.70;;;14.00;99.90;;;;;;5099864;28;20455;-79
2022/09/20 12:32:59;;;;;;;4.47;1.87;;;14.10;99.90;;;;;;5099629;28;20478;-79
2022/09/20 12:36:25;;;;;;;3.67;1.40;;;14.00;99.90;;;;;;5109376;28;20426;-81
2022/09/20 12:39:00;;;;;;;5.23;2.00;;;14.00;99.90;;;;;;5121432;28;20858;-79
2022/09/20 12:41:44;;;;;;;3.53;1.70;;;14.00;99.90;;;;;;5119298;28;20478;-81
2022/09/20 12:44:30;;;;;;;3.87;1.40;;;14.00;99.90;;;;;;5111584;28;20455;-80
2022/09/20 12:47:00;;;;;;;5.37;1.77;;;14.10;99.90;;;;;;5109408;28;20717;-81
2022/09/20 12:52:55;;;;;;;5.07;1.60;;;14.20;99.90;;;;;;5110798;28;20920;-80
2022/09/20 12:55:49;;;;;;;5.40;1.93;;;14.20;99.90;;;;;;5111820;28;20516;-79
2022/09/20 12:58:24;;;;;;;5.23;1.57;;;14.20;99.90;;;;;;5111625;28;20464;-81
2022/09/20 13:01:29;;;;;;;2.80;1.17;;;14.20;99.90;;;;;;5107659;28;20990;-80
2022/09/20 13:04:35;;;;;;;4.50;1.77;;;14.20;99.90;;;;;;5109730;28;20423;-81
2022/09/20 13:07:36;;;;;;;5.53;2.20;;;14.20;99.90;;;;;;5100069;28;20458;-80
2022/09/20 13:10:38;;;;;;;3.57;1.70;;;14.20;99.90;;;;;;5100324;28;20464;-79
2022/09/20 13:13:30;;;;;;;6.10;1.83;;;14.30;99.90;;;;;;5100660;28;20872;-80
2022/09/20 13:16:01;;;;;;;4.93;1.70;;;14.30;99.90;;;;;;5101344;28;20553;-79
2022/09/20 13:18:30;;;;;;;3.60;1.23;;;14.40;99.90;;;;;;5106184;28;20836;-81
2022/09/20 13:21:02;;;;;;;4.83;1.37;;;14.40;99.90;;;;;;5104179;28;20475;-81
2022/09/20 13:23:33;;;;;;;5.50;1.50;;;14.50;99.90;;;;;;5104559;28;20464;-81
2022/09/20 13:26:04;;;;;;;3.30;2.00;;;14.60;99.90;;;;;;5104356;28;20467;-80
2022/09/20 13:28:37;;;;;;;6.27;1.67;;;14.60;99.90;;;;;;5106571;28;20480;-81
2022/09/20 13:31:22;;;;;;;5.23;1.80;;;14.70;99.90;;;;;;5105896;28;20497;-80
2022/09/20 13:33:51;;;;;;;4.17;1.30;;;14.70;99.90;;;;;;5106312;28;20502;-81
2022/09/20 13:36:25;;;;;;;5.20;1.53;;;14.70;99.90;;;;;;5103918;28;20808;-80
2022/09/20 13:38:55;;;;;;;6.30;2.27;;;14.80;99.90;;;;;;5103522;28;20961;-81
2022/09/20 13:41:30;;;;;;;4.30;1.57;;;14.80;99.90;;;;;;5103459;28;20463;-80
2022/09/20 13:43:59;;;;;;;4.77;1.83;;;14.80;99.90;;;;;;5105176;28;20424;-81
2022/09/20 13:46:30;;;;;;;3.70;1.80;;;14.90;99.90;;;;;;5103982;28;20459;-81
2022/09/20 13:49:13;;;;;;;5.53;2.00;;;14.90;99.90;;;;;;5101947;28;20497;-82
2022/09/20 13:51:41;;;;;;;4.17;1.40;;;15.00;99.90;;;;;;5102057;28;20996;-79
2022/09/20 13:54:26;;;;;;;2.70;1.20;;;15.00;99.90;;;;;;5102870;28;20448;-82
2022/09/20 13:56:58;;;;;;;4.57;1.60;;;15.00;99.90;;;;;;5104369;28;20818;-79
2022/09/20 13:59:33;;;;;;;5.30;1.40;;;15.00;99.90;;;;;;5102802;28;20446;-80
2022/09/20 14:02:01;;;;;;;4.90;1.57;;;15.00;99.90;;;;;;5104421;28;20847;-81